Time;durP1;ratioP1;P1;durP2;ratioP2;P2;SDS_P1;SDS_P2;PMS_P1;PMS_P2;Temp;Humidity;BMP_temperature;BMP_pressure;BME280_temperature;BME280_humidity;BME280_pressure;Samples;Min_cycle;Max_cycle;Signal;HPM_P1;HPM_P2
2023/01/25 00:01:43;;;;;;;29.85;21.33;;;;;;;-0.09;89.38;103729.41;5036595;28;20083;-79
2023/01/25 00:04:09;;;;;;;33.35;23.48;;;;;;;-0.07;89.41;103732.16;5051544;28;20032;-79
2023/01/25 00:06:35;;;;;;;31.88;22.13;;;;;;;-0.07;88.57;103735.66;5037224;28;20059;-79
2023/01/25 00:09:00;;;;;;;34.20;25.10;;;;;;;-0.04;89.05;103727.13;5032030;28;20029;-79
2023/01/25 00:11:26;;;;;;;31.83;23.55;;;;;;;-0.04;89.06;103724.53;5043716;28;20484;-79
2023/01/25 00:13:55;;;;;;;33.55;23.55;;;;;;;-0.07;89.15;103725.22;5035961;28;20064;-79
2023/01/25 00:16:22;;;;;;;38.45;26.13;;;;;;;-0.07;89.24;103721.72;5042278;28;20079;-79
2023/01/25 00:18:48;;;;;;;37.47;26.70;;;;;;;-0.10;89.38;103722.41;5046372;28;20358;-79
2023/01/25 00:21:20;;;;;;;37.88;25.85;;;;;;;-0.09;89.55;103729.41;5041576;28;20107;-79
2023/01/25 00:23:46;;;;;;;35.65;25.52;;;;;;;-0.12;89.28;103726.63;5051357;28;20033;-79
2023/01/25 00:26:11;;;;;;;37.55;24.67;;;;;;;-0.15;89.66;103723.78;5018287;28;20049;-79
2023/01/25 00:28:37;;;;;;;34.28;24.23;;;;;;;-0.12;89.50;103723.13;5032642;28;20124;-79
2023/01/25 00:31:04;;;;;;;35.85;25.27;;;;;;;-0.10;89.75;103719.81;5046518;28;20147;-79
2023/01/25 00:33:36;;;;;;;37.13;28.05;;;;;;;-0.11;89.56;103719.69;5032224;28;20041;-79
2023/01/25 00:36:22;;;;;;;38.20;26.70;;;;;;;-0.13;89.49;103716.09;5032439;28;20095;-79
2023/01/25 00:38:47;;;;;;;39.92;27.67;;;;;;;-0.14;89.26;103714.28;5031527;28;20373;-79
2023/01/25 00:41:13;;;;;;;38.50;27.05;;;;;;;-0.13;89.46;103718.69;5035683;28;20021;-79
2023/01/25 00:43:39;;;;;;;37.13;27.17;;;;;;;-0.13;89.45;103714.38;5042604;28;20159;-79
2023/01/25 00:46:04;;;;;;;43.40;27.00;;;;;;;-0.14;89.13;103709.97;5039974;28;20563;-79
2023/01/25 00:48:30;;;;;;;38.42;27.98;;;;;;;-0.18;89.48;103702.75;5038705;28;20028;-79
2023/01/25 00:51:02;;;;;;;37.08;26.73;;;;;;;-0.16;89.67;103711.56;5016286;28;20044;-79
2023/01/25 00:53:28;;;;;;;39.28;28.30;;;;;;;-0.18;89.64;103710.56;5033177;28;20036;-79
2023/01/25 00:55:53;;;;;;;36.55;24.70;;;;;;;-0.24;89.82;103695.41;5050001;28;20036;-79
2023/01/25 00:58:19;;;;;;;43.28;29.33;;;;;;;-0.23;89.66;103702.41;5036017;28;20053;-79
2023/01/25 01:00:45;;;;;;;44.33;30.55;;;;;;;-0.22;89.70;103704.25;5030888;28;20404;-79
2023/01/25 01:03:10;;;;;;;42.35;28.60;;;;;;;-0.23;90.04;103707.63;5035707;28;20044;-79
2023/01/25 01:05:36;;;;;;;44.35;29.45;;;;;;;-0.23;89.76;103705.03;5038127;28;20124;-79
2023/01/25 01:08:02;;;;;;;48.95;33.13;;;;;;;-0.25;90.01;103703.13;5032841;28;20087;-79
2023/01/25 01:10:28;;;;;;;44.40;29.95;;;;;;;-0.26;89.88;103697.00;5045267;28;20041;-79
2023/01/25 01:12:54;;;;;;;47.40;32.60;;;;;;;-0.25;89.69;103701.44;5037729;28;20396;-79
2023/01/25 01:15:19;;;;;;;48.30;32.10;;;;;;;-0.24;89.83;103704.94;5028451;28;20064;-79
2023/01/25 01:17:45;;;;;;;47.70;31.60;;;;;;;-0.26;89.87;103698.72;5049518;28;20021;-79
2023/01/25 01:20:11;;;;;;;44.80;29.77;;;;;;;-0.26;89.12;103704.81;5038600;28;20045;-80
2023/01/25 01:22:37;;;;;;;51.78;30.92;;;;;;;-0.26;89.70;103709.13;5037953;28;20033;-79
2023/01/25 01:25:02;;;;;;;51.28;34.85;;;;;;;-0.29;89.77;103698.53;5031828;28;20029;-79
2023/01/25 01:27:28;;;;;;;51.38;31.98;;;;;;;-0.28;89.90;103703.81;5044182;28;20033;-79
2023/01/25 01:29:53;;;;;;;53.08;33.35;;;;;;;-0.29;89.64;103703.72;5030107;28;20133;-79
2023/01/25 01:32:19;;;;;;;52.25;34.20;;;;;;;-0.33;89.16;103700.00;5031086;28;20029;-79
2023/01/25 01:34:44;;;;;;;52.95;35.25;;;;;;;-0.35;89.45;103705.91;5032915;28;20036;-79
2023/01/25 01:37:10;;;;;;;54.42;33.85;;;;;;;-0.36;89.66;103705.00;5033864;28;20584;-79
2023/01/25 01:39:36;;;;;;;58.25;37.42;;;;;;;-0.37;89.18;103703.19;5029759;28;20121;-79
2023/01/25 01:42:02;;;;;;;56.67;36.50;;;;;;;-0.37;89.67;103702.28;5029655;28;20037;-80
2023/01/25 01:44:51;;;;;;;53.88;35.42;;;;;;;-0.36;89.76;103702.41;5031227;28;20038;-79
2023/01/25 01:47:31;;;;;;;55.40;34.85;;;;;;;-0.39;89.87;103696.97;5035866;28;20033;-79
2023/01/25 01:50:14;;;;;;;57.38;34.30;;;;;;;-0.39;89.94;103690.88;5041785;28;20060;-79
2023/01/25 01:52:40;;;;;;;53.30;32.83;;;;;;;-0.38;89.69;103687.47;5030138;28;20479;-79
2023/01/25 01:55:13;;;;;;;59.17;38.03;;;;;;;-0.36;89.01;103693.69;5013827;28;20132;-79
2023/01/25 01:57:47;;;;;;;51.83;33.17;;;;;;;-0.40;89.26;103700.38;5030048;28;20025;-79
2023/01/25 02:00:22;;;;;;;51.60;32.35;;;;;;;-0.41;89.29;103705.50;5017105;28;20026;-79
2023/01/25 02:02:50;;;;;;;51.95;34.63;;;;;;;-0.45;89.55;103700.03;5030352;28;20048;-79
2023/01/25 02:06:02;;;;;;;51.13;31.73;;;;;;;-0.42;89.81;103696.78;5030105;28;20490;-79
2023/01/25 02:08:31;;;;;;;49.58;32.25;;;;;;;-0.43;89.67;103693.25;5023117;28;20098;-79
2023/01/25 02:10:59;;;;;;;48.25;31.38;;;;;;;-0.45;90.12;103688.72;5027798;28;20036;-79
2023/01/25 02:13:26;;;;;;;46.83;30.90;;;;;;;-0.41;89.90;103693.38;5030121;28;20025;-79
2023/01/25 02:15:55;;;;;;;50.55;31.70;;;;;;;-0.41;89.95;103692.47;5047910;28;20479;-79
2023/01/25 02:18:22;;;;;;;57.58;35.92;;;;;;;-0.41;89.74;103688.16;5031868;28;20027;-79
2023/01/25 02:20:52;;;;;;;55.78;34.78;;;;;;;-0.39;89.94;103690.88;5029530;28;20041;-79
2023/01/25 02:23:39;;;;;;;53.05;35.95;;;;;;;-0.38;89.52;103687.47;5032790;28;20035;-79
2023/01/25 02:26:06;;;;;;;51.72;33.70;;;;;;;-0.42;90.00;103678.56;5032641;28;20533;-79
2023/01/25 02:28:45;;;;;;;46.47;31.13;;;;;;;-0.39;89.59;103686.56;5032964;28;20383;-80
2023/01/25 02:31:10;;;;;;;52.08;33.60;;;;;;;-0.43;89.83;103675.03;5044913;28;20369;-79
2023/01/25 02:33:36;;;;;;;51.50;32.58;;;;;;;-0.43;89.70;103676.72;5013482;28;20086;-80
2023/01/25 02:36:05;;;;;;;54.35;33.28;;;;;;;-0.41;89.67;103672.53;5026207;28;20033;-80
2023/01/25 02:38:37;;;;;;;53.78;35.08;;;;;;;-0.44;89.80;103672.34;5015323;28;20029;-79
2023/01/25 02:41:10;;;;;;;52.80;32.90;;;;;;;-0.43;89.70;103672.41;5017716;28;20553;-79
2023/01/25 02:43:37;;;;;;;52.28;33.17;;;;;;;-0.43;89.68;103666.31;5030452;28;20049;-79
2023/01/25 02:46:21;;;;;;;60.00;36.10;;;;;;;-0.45;89.47;103663.59;5043657;28;20064;-79
2023/01/25 02:48:47;;;;;;;49.92;32.47;;;;;;;-0.46;89.78;103663.50;5050952;28;20033;-79
2023/01/25 02:51:13;;;;;;;52.95;34.20;;;;;;;-0.44;89.79;103668.03;5029529;28;20032;-79
2023/01/25 02:53:39;;;;;;;52.25;31.95;;;;;;;-0.44;90.07;103662.81;5049856;28;20039;-79
2023/01/25 02:56:05;;;;;;;56.28;34.83;;;;;;;-0.48;89.57;103663.38;5043740;28;20037;-80
2023/01/25 02:58:30;;;;;;;56.58;34.33;;;;;;;-0.48;89.54;103662.50;5039041;28;20041;-79
2023/01/25 03:00:57;;;;;;;51.63;32.25;;;;;;;-0.49;90.00;103656.41;5036396;28;20021;-79
2023/01/25 03:03:24;;;;;;;53.80;33.50;;;;;;;-0.49;90.43;103655.50;5031202;28;20033;-79
2023/01/25 03:05:52;;;;;;;68.18;40.45;;;;;;;-0.46;89.75;103659.19;5041692;28;20059;-79
2023/01/25 03:08:17;;;;;;;67.13;40.13;;;;;;;-0.45;90.22;103657.50;5036072;28;20042;-79
2023/01/25 03:10:44;;;;;;;65.05;39.53;;;;;;;-0.48;90.15;103658.19;5056190;28;20025;-80
2023/01/25 03:13:10;;;;;;;65.43;39.97;;;;;;;-0.49;89.90;103661.59;5060568;28;20049;-79
2023/01/25 03:15:36;;;;;;;62.55;37.97;;;;;;;-0.46;89.55;103658.31;5041175;28;20033;-79
2023/01/25 03:18:02;;;;;;;64.97;38.33;;;;;;;-0.46;89.68;103653.09;5033957;28;20099;-80
2023/01/25 03:20:28;;;;;;;62.72;37.88;;;;;;;-0.45;89.85;103647.97;5017826;28;20040;-80
2023/01/25 03:22:53;;;;;;;64.35;38.28;;;;;;;-0.45;89.45;103652.28;5040346;28;20476;-80
2023/01/25 03:25:21;;;;;;;65.88;39.30;;;;;;;-0.46;89.89;103640.09;5017936;28;20393;-80
2023/01/25 03:27:55;;;;;;;63.83;37.88;;;;;;;-0.47;90.01;103635.66;5022069;28;20408;-79
2023/01/25 03:30:21;;;;;;;65.70;41.08;;;;;;;-0.49;89.53;103626.88;5025412;28;20045;-80
2023/01/25 03:32:46;;;;;;;65.43;39.47;;;;;;;-0.46;89.98;103627.06;5035034;28;20095;-79
2023/01/25 03:35:17;;;;;;;68.57;38.72;;;;;;;-0.48;89.61;103624.34;5036148;28;20396;-80
2023/01/25 03:37:42;;;;;;;69.90;39.45;;;;;;;-0.50;89.58;103620.72;5040771;28;20033;-80
2023/01/25 03:40:09;;;;;;;74.07;43.20;;;;;;;-0.52;89.99;103617.16;5033747;28;20033;-80
2023/01/25 03:42:35;;;;;;;74.30;43.55;;;;;;;-0.51;89.50;103620.66;5033797;28;20040;-80
2023/01/25 03:45:01;;;;;;;75.60;43.55;;;;;;;-0.53;90.22;103623.13;5018985;28;20029;-80
2023/01/25 03:47:27;;;;;;;80.68;46.42;;;;;;;-0.52;89.85;103621.41;5047762;28;20045;-80
2023/01/25 03:49:53;;;;;;;82.22;47.42;;;;;;;-0.58;89.28;103615.81;5035305;28;20048;-79
2023/01/25 03:52:18;;;;;;;81.63;45.22;;;;;;;-0.66;89.44;103613.59;5043587;28;20115;-80
2023/01/25 03:54:45;;;;;;;85.07;47.00;;;;;;;-0.69;89.33;103620.28;5046127;28;20040;-80
2023/01/25 03:57:12;;;;;;;79.68;44.45;;;;;;;-0.69;89.94;103623.78;5031134;28;20180;-80
2023/01/25 03:59:58;;;;;;;77.50;44.65;;;;;;;-0.69;89.74;103629.00;5033278;28;20045;-80
2023/01/25 04:02:24;;;;;;;76.88;42.83;;;;;;;-0.72;89.51;103621.00;5048856;28;20563;-80
2023/01/25 04:04:50;;;;;;;83.88;43.50;;;;;;;-0.72;89.81;103620.06;5047678;28;20223;-79
2023/01/25 04:07:17;;;;;;;78.93;42.72;;;;;;;-0.68;90.03;103622.97;5021704;28;20080;-80
2023/01/25 04:09:43;;;;;;;81.93;43.20;;;;;;;-0.69;90.29;103626.41;5034098;28;20483;-80
2023/01/25 04:12:10;;;;;;;82.78;48.25;;;;;;;-0.62;90.31;103624.19;5031739;28;20045;-80
2023/01/25 04:14:37;;;;;;;86.35;47.80;;;;;;;-0.58;89.76;103616.72;5044309;28;20045;-80
2023/01/25 04:17:07;;;;;;;88.90;47.53;;;;;;;-0.62;89.97;103624.19;5019686;28;20033;-80
2023/01/25 04:19:48;;;;;;;89.50;49.28;;;;;;;-0.67;89.99;103608.25;5036405;28;20163;-79
2023/01/25 04:22:17;;;;;;;88.15;48.92;;;;;;;-0.66;89.98;103610.97;5023136;28;20040;-80
2023/01/25 04:24:43;;;;;;;87.38;48.78;;;;;;;-0.69;89.64;103600.38;5044764;28;20037;-80
2023/01/25 04:27:09;;;;;;;87.95;49.05;;;;;;;-0.74;89.78;103599.16;5015572;28;20036;-80
2023/01/25 04:29:43;;;;;;;89.72;50.88;;;;;;;-0.75;90.33;103594.72;5031040;28;20137;-80
2023/01/25 04:32:14;;;;;;;79.88;43.17;;;;;;;-0.73;90.41;103603.56;5048436;28;20048;-80
2023/01/25 04:34:40;;;;;;;80.97;45.20;;;;;;;-0.72;89.96;103607.03;5033342;28;20060;-79
2023/01/25 04:37:10;;;;;;;93.90;49.88;;;;;;;-0.74;90.35;103603.44;5050430;28;20075;-80
2023/01/25 04:39:45;;;;;;;91.57;47.08;;;;;;;-0.74;90.09;103596.56;5038622;28;20048;-80
2023/01/25 04:42:11;;;;;;;100.63;53.30;;;;;;;-0.76;89.88;103603.34;5012530;28;20029;-80
2023/01/25 04:44:37;;;;;;;100.55;52.17;;;;;;;-0.80;89.96;103597.81;5041739;28;20036;-80
2023/01/25 04:47:02;;;;;;;97.95;51.78;;;;;;;-0.74;89.59;103593.03;5015281;28;20061;-80
2023/01/25 04:49:28;;;;;;;97.82;49.35;;;;;;;-0.80;90.09;103592.63;5033282;28;20100;-80
2023/01/25 04:51:55;;;;;;;101.05;53.50;;;;;;;-0.90;90.26;103583.28;5035038;28;20036;-80
2023/01/25 04:54:20;;;;;;;107.20;56.08;;;;;;;-0.94;90.57;103582.19;5017704;28;20384;-80
2023/01/25 04:56:48;;;;;;;105.05;55.00;;;;;;;-0.92;91.01;103588.34;5033835;28;20457;-80
2023/01/25 04:59:14;;;;;;;93.15;50.30;;;;;;;-0.93;90.91;103585.69;5034876;28;20037;-80
2023/01/25 05:01:40;;;;;;;97.97;49.50;;;;;;;-0.96;91.05;103581.16;5030847;28;20072;-80
2023/01/25 05:04:06;;;;;;;106.85;54.35;;;;;;;-0.94;91.25;103592.59;5032229;28;20037;-80
2023/01/25 05:06:36;;;;;;;96.32;52.90;;;;;;;-0.96;91.09;103582.88;5035932;28;20451;-80
2023/01/25 05:09:02;;;;;;;90.13;47.38;;;;;;;-0.92;91.55;103587.47;5017620;28;20033;-80
2023/01/25 05:11:29;;;;;;;99.20;51.53;;;;;;;-0.93;91.59;103575.28;5032122;28;20383;-80
2023/01/25 05:14:01;;;;;;;95.25;49.10;;;;;;;-0.89;91.21;103578.19;5030874;28;20429;-80
2023/01/25 05:16:30;;;;;;;95.97;52.70;;;;;;;-0.87;91.14;103573.06;5041509;28;20164;-79
2023/01/25 05:18:57;;;;;;;103.72;53.17;;;;;;;-0.85;91.16;103574.09;5018098;28;20116;-80
2023/01/25 05:24:16;;;;;;;95.32;48.42;;;;;;;-0.99;90.48;103538.41;5019008;28;20069;-80
2023/01/25 05:27:00;;;;;;;103.07;51.38;;;;;;;-0.89;90.78;103565.19;5015470;28;20040;-80
2023/01/25 05:29:35;;;;;;;105.68;51.80;;;;;;;-0.90;90.62;103558.16;5015246;28;20396;-80
2023/01/25 05:32:11;;;;;;;105.63;54.80;;;;;;;-0.88;91.03;103559.16;5035738;28;20039;-80
2023/01/25 05:34:39;;;;;;;99.25;52.10;;;;;;;-0.87;91.48;103560.06;5038212;28;20091;-80
2023/01/25 05:37:06;;;;;;;114.65;55.33;;;;;;;-0.88;91.42;103553.97;5035492;28;20196;-80
2023/01/25 05:39:35;;;;;;;114.38;58.25;;;;;;;-0.88;91.16;103558.28;5039282;28;20435;-80
2023/01/25 05:42:01;;;;;;;110.72;57.53;;;;;;;-0.95;91.32;103558.66;5037871;28;20492;-80
2023/01/25 05:44:27;;;;;;;114.43;58.90;;;;;;;-0.98;91.51;103555.84;5039012;28;20070;-80
2023/01/25 05:46:54;;;;;;;116.05;57.25;;;;;;;-0.96;91.51;103557.75;5036770;28;20033;-79
2023/01/25 05:49:20;;;;;;;113.63;53.92;;;;;;;-0.93;91.35;103562.25;5040358;28;20151;-80
2023/01/25 05:51:46;;;;;;;102.15;52.60;;;;;;;-0.93;91.63;103554.47;5036653;28;20021;-80
2023/01/25 05:54:15;;;;;;;112.57;56.88;;;;;;;-0.92;91.52;103557.16;5030451;28;20033;-80
2023/01/25 05:56:45;;;;;;;113.13;54.88;;;;;;;-0.88;90.84;103555.69;5032138;28;20025;-80
2023/01/25 05:59:11;;;;;;;123.07;60.15;;;;;;;-0.88;91.26;103555.69;5033455;28;20496;-80
2023/01/25 06:01:37;;;;;;;120.55;61.60;;;;;;;-0.89;91.47;103551.25;5026706;28;20124;-80
2023/01/25 06:04:03;;;;;;;107.88;54.50;;;;;;;-0.89;90.95;103552.19;5022587;28;20083;-80
2023/01/25 06:06:29;;;;;;;122.70;60.28;;;;;;;-0.92;91.31;103551.03;5035707;28;20037;-79
2023/01/25 06:08:54;;;;;;;120.82;62.42;;;;;;;-0.93;90.95;103555.34;5023920;28;20039;-80
2023/01/25 06:11:24;;;;;;;110.00;55.08;;;;;;;-0.90;90.82;103555.56;5033699;28;20028;-80
2023/01/25 06:13:51;;;;;;;109.07;56.58;;;;;;;-0.89;91.06;103562.59;5030098;28;20033;-80
2023/01/25 06:16:19;;;;;;;108.65;58.10;;;;;;;-0.89;90.68;103567.78;5031811;28;20120;-80
2023/01/25 06:19:00;;;;;;;123.05;61.25;;;;;;;-0.91;90.86;103565.88;5030440;28;20519;-80
2023/01/25 06:21:25;;;;;;;115.13;56.58;;;;;;;-0.88;90.83;103566.06;5030287;28;20037;-79
2023/01/25 06:23:50;;;;;;;111.93;55.70;;;;;;;-0.99;90.32;103536.75;5031410;28;20396;-79
2023/01/25 06:26:18;;;;;;;123.28;64.00;;;;;;;-0.91;90.95;103555.47;5031135;28;20037;-80
2023/01/25 06:28:44;;;;;;;117.82;58.72;;;;;;;-0.91;90.85;103560.66;5033825;28;20054;-74
2023/01/25 06:31:12;;;;;;;116.97;56.78;;;;;;;-0.97;91.10;103561.13;5037207;28;20204;-76
2023/01/25 06:33:38;;;;;;;114.13;54.35;;;;;;;-0.99;91.16;103551.41;5046264;28;20125;-74
2023/01/25 06:36:07;;;;;;;117.93;54.47;;;;;;;-0.99;91.28;103561.81;5038017;28;20611;-74
2023/01/25 06:38:33;;;;;;;117.10;58.03;;;;;;;-1.02;91.00;103559.91;5034109;28;20029;-74
2023/01/25 06:41:03;;;;;;;115.32;57.60;;;;;;;-1.00;91.45;103558.31;5035138;28;20040;-74
2023/01/25 06:43:30;;;;;;;115.67;56.77;;;;;;;-1.02;91.26;103551.22;5035498;28;20105;-75
2023/01/25 06:46:04;;;;;;;118.75;58.75;;;;;;;-1.11;90.83;103552.41;5046804;28;20057;-74
2023/01/25 06:48:33;;;;;;;105.03;53.38;;;;;;;-1.13;91.23;103553.97;5052677;28;20055;-74
2023/01/25 06:51:01;;;;;;;108.75;56.33;;;;;;;-1.12;91.15;103554.88;5053757;28;20036;-75
2023/01/25 06:53:29;;;;;;;103.72;50.05;;;;;;;-1.10;91.60;103553.28;5047953;28;20037;-75
2023/01/25 06:56:06;;;;;;;119.53;58.40;;;;;;;-1.11;92.04;103552.41;5036319;28;20132;-74
2023/01/25 06:58:32;;;;;;;110.97;54.42;;;;;;;-1.08;91.73;103551.69;5033184;28;20073;-74
2023/01/25 07:01:00;;;;;;;120.13;57.13;;;;;;;-1.09;91.91;103545.59;5034456;28;20020;-74
2023/01/25 07:03:26;;;;;;;113.45;59.75;;;;;;;-1.01;91.80;103553.94;5043078;28;20052;-74
2023/01/25 07:06:06;;;;;;;121.88;61.88;;;;;;;-1.03;91.62;103552.91;5032593;28;20091;-74
2023/01/25 07:08:33;;;;;;;112.15;54.22;;;;;;;-1.03;91.74;103549.44;5034146;28;20044;-74
2023/01/25 07:11:01;;;;;;;113.10;55.72;;;;;;;-1.09;91.61;103544.69;5032966;28;20025;-75
2023/01/25 07:13:28;;;;;;;110.35;54.65;;;;;;;-1.06;91.95;103546.59;5032871;28;20044;-74
2023/01/25 07:15:59;;;;;;;112.13;55.33;;;;;;;-1.04;91.55;103547.59;5034966;28;20427;-74
2023/01/25 07:18:26;;;;;;;106.82;52.45;;;;;;;-1.03;91.15;103552.03;5044162;28;20040;-74
2023/01/25 07:20:52;;;;;;;104.05;49.35;;;;;;;-1.03;90.95;103552.91;5035371;28;20033;-74
2023/01/25 07:23:18;;;;;;;117.43;57.88;;;;;;;-1.03;91.58;103552.91;5034917;28;20033;-74
2023/01/25 07:25:49;;;;;;;122.05;60.08;;;;;;;-1.03;91.33;103552.91;5034415;28;20045;-74
2023/01/25 07:28:16;;;;;;;115.60;54.85;;;;;;;-1.03;90.94;103542.50;5033219;28;20396;-74
2023/01/25 07:30:42;;;;;;;107.38;54.30;;;;;;;-1.02;90.73;103543.41;5032934;28;20073;-74
2023/01/25 07:33:09;;;;;;;101.97;49.72;;;;;;;-1.05;91.51;103544.09;5037548;28;20037;-74
2023/01/25 07:35:35;;;;;;;110.43;50.22;;;;;;;-1.09;91.12;103540.41;5032975;28;20034;-74
2023/01/25 07:38:00;;;;;;;97.95;50.15;;;;;;;-1.08;91.23;103530.91;5032197;28;20029;-74
2023/01/25 07:40:26;;;;;;;100.03;49.42;;;;;;;-1.10;91.25;103535.09;5033815;28;20034;-74
2023/01/25 07:42:51;;;;;;;112.88;53.42;;;;;;;-1.11;91.27;103528.09;5034071;28;20069;-74
2023/01/25 07:45:18;;;;;;;111.65;52.08;;;;;;;-1.14;91.77;103525.25;5047432;28;20016;-74
2023/01/25 07:47:44;;;;;;;104.38;50.20;;;;;;;-1.16;92.22;103529.47;5022885;28;20400;-74
2023/01/25 07:50:10;;;;;;;107.40;53.55;;;;;;;-1.20;91.67;103522.25;5040695;28;20037;-75
2023/01/25 07:52:35;;;;;;;119.05;58.67;;;;;;;-1.15;91.33;103526.06;5042599;28;20044;-74
2023/01/25 07:55:01;;;;;;;117.43;54.33;;;;;;;-1.16;92.30;103525.16;5039096;28;21916;-75
2023/01/25 07:57:27;;;;;;;114.43;52.97;;;;;;;-1.17;92.41;103531.16;5039182;28;20124;-75
2023/01/25 07:59:53;;;;;;;112.93;56.70;;;;;;;-1.11;92.15;103538.50;5044739;28;20052;-75
2023/01/25 08:02:19;;;;;;;121.40;61.25;;;;;;;-1.10;92.02;103529.88;5049638;28;20033;-75
2023/01/25 08:04:45;;;;;;;121.75;60.65;;;;;;;-1.10;92.15;103535.97;5043839;28;20041;-75
2023/01/25 08:07:11;;;;;;;107.15;53.15;;;;;;;-1.11;91.86;103525.50;5048878;28;20037;-75
2023/01/25 08:09:36;;;;;;;98.97;49.03;;;;;;;-1.10;91.80;103522.97;5035360;28;20044;-75
2023/01/25 08:12:02;;;;;;;110.10;50.85;;;;;;;-1.06;92.05;103524.09;5052209;28;20048;-75
2023/01/25 08:14:27;;;;;;;111.70;55.28;;;;;;;-1.05;92.09;103520.69;5051857;28;20039;-75
2023/01/25 08:16:53;;;;;;;105.65;49.97;;;;;;;-1.03;91.86;103524.31;5051891;28;20041;-75
2023/01/25 08:19:20;;;;;;;108.68;50.60;;;;;;;-1.04;92.01;103525.09;5049093;28;20044;-75
2023/01/25 08:21:46;;;;;;;103.32;50.78;;;;;;;-1.06;91.84;103520.59;5042602;28;20048;-75
2023/01/25 08:24:12;;;;;;;111.88;53.60;;;;;;;-1.07;91.86;103517.09;5039011;28;20033;-75
2023/01/25 08:26:37;;;;;;;108.43;51.92;;;;;;;-1.06;91.82;103517.97;5053370;28;20083;-75
2023/01/25 08:29:04;;;;;;;110.80;52.72;;;;;;;-1.02;92.09;103512.19;5031894;28;20053;-75
2023/01/25 08:31:32;;;;;;;111.75;55.25;;;;;;;-1.02;91.54;103513.09;5051566;28;20410;-75
2023/01/25 08:33:59;;;;;;;123.13;56.60;;;;;;;-1.04;92.05;103506.88;5049351;28;20368;-75
2023/01/25 08:36:26;;;;;;;120.63;54.95;;;;;;;-0.99;92.14;103513.34;5032315;28;20484;-75
2023/01/25 08:38:57;;;;;;;122.55;60.22;;;;;;;-0.96;91.93;103515.25;5031914;28;20068;-77
2023/01/25 08:41:24;;;;;;;122.47;60.22;;;;;;;-0.94;91.81;103511.94;5031370;28;20427;-75
2023/01/25 08:43:52;;;;;;;121.53;56.45;;;;;;;-0.96;91.64;103523.94;5031485;28;20475;-75
2023/01/25 08:46:18;;;;;;;116.90;58.15;;;;;;;-0.96;91.38;103516.13;5049629;28;20045;-75
2023/01/25 08:48:43;;;;;;;106.25;52.00;;;;;;;-0.96;91.06;103523.03;5051441;28;20052;-74
2023/01/25 08:51:15;;;;;;;114.10;56.90;;;;;;;-1.00;91.19;103510.63;5038440;28;20107;-75
2023/01/25 08:53:41;;;;;;;111.15;53.05;;;;;;;-1.00;91.55;103515.81;5035722;28;20044;-75
2023/01/25 08:56:09;;;;;;;119.38;59.10;;;;;;;-1.07;91.19;103509.28;5036733;28;20025;-75
2023/01/25 08:58:37;;;;;;;109.22;53.00;;;;;;;-1.09;91.16;103511.81;5052490;28;20022;-75
2023/01/25 09:01:08;;;;;;;107.60;51.30;;;;;;;-1.09;91.60;103506.59;5040818;28;20044;-74
2023/01/25 09:03:35;;;;;;;106.40;51.03;;;;;;;-1.05;91.74;103502.50;5050767;28;20025;-75
2023/01/25 09:06:01;;;;;;;114.10;55.28;;;;;;;-1.04;91.61;103501.69;5040583;28;20029;-75
2023/01/25 09:08:26;;;;;;;112.25;54.10;;;;;;;-1.10;91.47;103490.88;5038592;28;20041;-75
2023/01/25 09:10:52;;;;;;;112.95;53.10;;;;;;;-1.09;91.23;103491.00;5031337;28;20035;-75
2023/01/25 09:13:17;;;;;;;115.18;51.70;;;;;;;-1.05;91.28;103489.47;5029715;28;20053;-75
2023/01/25 09:15:43;;;;;;;111.30;54.38;;;;;;;-1.06;91.68;103489.38;5030985;28;20075;-75
2023/01/25 09:18:09;;;;;;;122.13;59.85;;;;;;;-1.05;91.04;103496.41;5032152;28;20388;-74
2023/01/25 09:20:37;;;;;;;118.22;55.22;;;;;;;-1.07;90.80;103483.28;5030773;28;20448;-74
2023/01/25 09:23:03;;;;;;;118.18;56.88;;;;;;;-1.09;90.73;103485.78;5039628;28;20087;-74
2023/01/25 09:25:28;;;;;;;108.97;51.50;;;;;;;-1.04;90.79;103490.38;5021281;28;20037;-74
2023/01/25 09:27:53;;;;;;;104.45;50.03;;;;;;;-1.08;91.44;103489.28;5032152;28;20144;-74
2023/01/25 09:30:22;;;;;;;112.30;50.15;;;;;;;-1.09;91.28;103493.59;5031687;28;20127;-75
2023/01/25 09:32:51;;;;;;;120.13;54.88;;;;;;;-1.15;91.26;103495.75;5030546;28;20432;-75
2023/01/25 09:35:17;;;;;;;119.57;56.10;;;;;;;-1.17;90.80;103496.44;5019384;28;20095;-75
2023/01/25 09:37:42;;;;;;;101.72;49.75;;;;;;;-1.16;90.65;103493.06;5031559;28;20069;-75
2023/01/25 09:40:22;;;;;;;105.30;50.05;;;;;;;-1.18;91.19;103492.06;5030540;28;20041;-76
2023/01/25 09:43:00;;;;;;;104.75;50.08;;;;;;;-1.16;91.24;103486.16;5030604;28;20041;-75
2023/01/25 09:45:31;;;;;;;104.25;49.28;;;;;;;-1.14;91.69;103481.03;5042284;28;20032;-75
2023/01/25 09:48:09;;;;;;;107.78;49.90;;;;;;;-1.11;91.40;103478.69;5044614;28;20075;-75
2023/01/25 09:50:40;;;;;;;107.65;51.20;;;;;;;-1.09;91.58;103479.66;5043671;28;20029;-75
2023/01/25 09:53:20;;;;;;;111.20;51.38;;;;;;;-1.04;92.15;103486.06;5045906;28;20033;-75
2023/01/25 09:55:58;;;;;;;103.30;48.85;;;;;;;-1.01;91.82;103475.91;5031902;28;20074;-75
2023/01/25 09:58:32;;;;;;;107.20;49.20;;;;;;;-0.96;91.63;103484.91;5048189;28;20151;-75
2023/01/25 10:01:11;;;;;;;105.43;49.10;;;;;;;-0.93;91.79;103476.41;5051165;28;20040;-75
2023/01/25 10:03:54;;;;;;;107.22;50.80;;;;;;;-0.87;91.62;103489.81;5048265;28;20025;-75
2023/01/25 10:06:26;;;;;;;116.35;58.20;;;;;;;-0.89;91.28;103475.81;5039092;28;20523;-75
2023/01/25 10:09:09;;;;;;;110.00;53.40;;;;;;;-0.83;91.71;103481.44;5035356;28;20045;-75
2023/01/25 10:11:37;;;;;;;104.35;53.47;;;;;;;-0.83;91.21;103468.44;5049160;28;20056;-75
2023/01/25 10:14:14;;;;;;;112.63;53.13;;;;;;;-0.84;90.87;103460.50;5050800;28;20032;-75
2023/01/25 10:16:45;;;;;;;111.40;54.53;;;;;;;-0.85;90.48;103463.91;5046875;28;20061;-75
2023/01/25 10:19:41;;;;;;;100.90;47.90;;;;;;;-0.87;91.14;103471.63;5036805;28;20040;-75
2023/01/25 10:22:15;;;;;;;106.68;49.85;;;;;;;-0.87;91.44;103464.75;5037443;28;20037;-75
2023/01/25 10:25:06;;;;;;;113.22;54.65;;;;;;;-0.86;91.23;103463.03;5050351;28;20095;-76
2023/01/25 10:27:42;;;;;;;104.72;50.90;;;;;;;-0.84;91.84;103463.13;5046328;28;20377;-76
2023/01/25 10:30:20;;;;;;;109.10;50.65;;;;;;;-0.85;90.92;103461.31;5042487;28;20049;-75
2023/01/25 10:32:48;;;;;;;112.80;54.42;;;;;;;-0.88;91.29;103447.31;5031094;28;20038;-76
2023/01/25 10:35:22;;;;;;;109.00;52.65;;;;;;;-0.91;90.45;103447.09;5030118;28;20030;-76
2023/01/25 10:37:50;;;;;;;111.70;53.50;;;;;;;-0.90;91.03;103448.91;5048310;28;20033;-75
2023/01/25 10:40:22;;;;;;;102.18;48.78;;;;;;;-0.89;91.26;103442.00;5013732;28;20486;-75
2023/01/25 10:43:00;;;;;;;109.60;52.03;;;;;;;-0.87;91.35;103430.00;5036251;28;20140;-75
2023/01/25 10:45:28;;;;;;;104.28;50.13;;;;;;;-0.87;91.14;103422.19;5025672;28;20483;-75
2023/01/25 10:48:02;;;;;;;107.18;52.83;;;;;;;-0.91;91.00;103409.78;5043827;28;20087;-75
2023/01/25 10:50:43;;;;;;;104.60;48.70;;;;;;;-0.83;91.41;103421.59;5037341;28;20503;-75
2023/01/25 10:53:26;;;;;;;111.43;50.80;;;;;;;-0.82;91.17;103409.47;5050200;28;20373;-75
2023/01/25 10:56:03;;;;;;;106.15;48.72;;;;;;;-0.78;90.95;103395.88;5029864;28;20037;-74
2023/01/25 10:58:33;;;;;;;98.38;46.40;;;;;;;-0.74;89.88;103397.88;5032787;28;20585;-75
2023/01/25 11:01:00;;;;;;;104.93;50.93;;;;;;;-0.82;89.62;103380.88;5051055;28;20033;-75
2023/01/25 11:03:37;;;;;;;94.95;45.22;;;;;;;-0.85;90.24;103383.28;5037056;28;20025;-75
2023/01/25 11:06:04;;;;;;;97.13;45.15;;;;;;;-0.84;90.68;103377.25;5049619;28;20064;-75
2023/01/25 11:08:30;;;;;;;106.40;52.58;;;;;;;-0.90;89.97;103376.06;5035612;28;20187;-75
2023/01/25 11:10:56;;;;;;;103.22;51.38;;;;;;;-0.95;90.58;103363.56;5049565;28;20128;-75
2023/01/25 11:13:32;;;;;;;95.35;45.47;;;;;;;-0.91;91.48;103370.78;5051303;28;20104;-75
2023/01/25 11:16:00;;;;;;;107.85;52.35;;;;;;;-0.90;90.81;103362.16;5036941;28;20048;-75